createdAt,value
2023-03-21T00:01:44.972Z,98337.25
2023-03-21T00:04:12.008Z,98332.72
2023-03-21T00:06:38.669Z,98338.22
2023-03-21T00:09:05.158Z,98335.16
2023-03-21T00:11:31.676Z,98333.53
2023-03-21T00:14:02.273Z,98339.84
2023-03-21T00:16:34.365Z,98345.38
2023-03-21T00:19:06.261Z,98338.56
2023-03-21T00:21:46.592Z,98335.78
2023-03-21T00:24:15.438Z,98337.41
2023-03-21T00:26:41.970Z,98331.59
2023-03-21T00:29:08.429Z,98332.56
2023-03-21T00:31:35.015Z,98329.97
2023-03-21T00:34:01.841Z,98333.03
2023-03-21T00:36:28.547Z,98328.66
2023-03-21T00:38:55.280Z,98326.22
2023-03-21T00:41:39.273Z,98326.69
2023-03-21T00:44:08.446Z,98323.94
2023-03-21T00:46:44.077Z,98327.19
2023-03-21T00:49:13.609Z,98323.13
2023-03-21T00:51:40.080Z,98330.59
2023-03-21T00:54:07.730Z,98319.91
2023-03-21T00:56:34.310Z,98320.06
2023-03-21T00:59:00.875Z,98316.00
2023-03-21T01:01:32.177Z,98322.97
2023-03-21T01:04:04.318Z,98321.16
2023-03-21T01:06:31.837Z,98309.84
2023-03-21T01:08:58.377Z,98317.13
2023-03-21T01:11:26.919Z,98313.91
2023-03-21T01:13:59.629Z,98306.25
2023-03-21T01:16:28.364Z,98313.56
2023-03-21T01:18:56.038Z,98312.28
2023-03-21T01:21:22.513Z,98306.59
2023-03-21T01:23:49.031Z,98304.31
2023-03-21T01:26:15.603Z,98305.47
2023-03-21T01:28:42.525Z,98315.03
2023-03-21T01:31:09.741Z,98313.06
2023-03-21T01:33:36.292Z,98313.84
2023-03-21T01:36:12.110Z,98307.19
2023-03-21T01:38:40.407Z,98314.84
2023-03-21T01:41:18.680Z,98310.94
2023-03-21T01:43:45.950Z,98313.06
2023-03-21T01:46:21.189Z,98314.72
2023-03-21T01:48:53.959Z,98306.09
2023-03-21T01:51:20.420Z,98309.31
2023-03-21T01:53:47.185Z,98313.56
2023-03-21T01:56:34.365Z,98317.13
2023-03-21T01:59:10.757Z,98314.88
2023-03-21T02:01:38.333Z,98321.19
2023-03-21T02:04:04.956Z,98316.66
2023-03-21T02:06:48.948Z,98322.66
2023-03-21T02:09:18.629Z,98321.34
2023-03-21T02:11:47.976Z,98319.09
2023-03-21T02:14:26.570Z,98318.41
2023-03-21T02:17:23.562Z,98310.31
2023-03-21T02:20:14.457Z,98309.63
2023-03-21T02:23:02.190Z,98308.03
2023-03-21T02:25:53.465Z,98304.66
2023-03-21T02:28:46.106Z,98301.84
2023-03-21T02:31:21.625Z,98302.81
2023-03-21T02:33:54.005Z,98291.28
2023-03-21T02:36:58.000Z,98289.03
2023-03-21T02:39:30.488Z,98296.66
2023-03-21T02:42:05.466Z,98287.56
2023-03-21T02:44:58.083Z,98281.25
2023-03-21T02:47:35.954Z,98287.56
2023-03-21T02:50:11.815Z,98289.53
2023-03-21T02:52:39.911Z,98298.44
2023-03-21T02:55:13.887Z,98295.19
2023-03-21T02:57:43.757Z,98286.44
2023-03-21T03:00:16.473Z,98293.44
2023-03-21T03:02:43.732Z,98291.78
2023-03-21T03:05:22.236Z,98288.38
2023-03-21T03:08:15.536Z,98288.22
2023-03-21T03:11:04.410Z,98285.28
2023-03-21T03:13:54.329Z,98281.88
2023-03-21T03:17:02.150Z,98275.38
2023-03-21T03:19:48.002Z,98270.69
2023-03-21T03:22:23.661Z,98272.47
2023-03-21T03:25:02.764Z,98277.50
2023-03-21T03:27:33.306Z,98278.91
2023-03-21T03:30:00.653Z,98286.38
2023-03-21T03:32:31.366Z,98279.75
2023-03-21T03:34:57.859Z,98281.88
2023-03-21T03:37:26.751Z,98279.94
2023-03-21T03:40:16.753Z,98280.41
2023-03-21T03:42:46.478Z,98278.47
2023-03-21T03:45:12.989Z,98273.59
2023-03-21T03:47:56.375Z,98278.97
2023-03-21T03:50:23.681Z,98279.94
2023-03-21T03:52:57.216Z,98279.78
2023-03-21T03:55:26.645Z,98282.06
2023-03-21T03:57:54.044Z,98284.16
2023-03-21T04:00:20.826Z,98279.72
2023-03-21T04:02:47.334Z,98278.63
2023-03-21T04:05:13.972Z,98275.38
2023-03-21T04:07:41.338Z,98283.34
2023-03-21T04:10:08.154Z,98271.50
2023-03-21T04:12:34.744Z,98284.97
2023-03-21T04:15:10.018Z,98279.59
2023-03-21T04:17:38.354Z,98278.31
2023-03-21T04:20:12.882Z,98272.00
2023-03-21T04:22:43.435Z,98274.91
2023-03-21T04:25:10.020Z,98274.25
2023-03-21T04:27:36.483Z,98281.56
2023-03-21T04:30:04.148Z,98276.19
2023-03-21T04:32:33.866Z,98275.06
2023-03-21T04:35:00.870Z,98267.44
2023-03-21T04:37:27.918Z,98269.06
2023-03-21T04:39:54.406Z,98261.75
2023-03-21T04:42:21.065Z,98258.03
2023-03-21T04:44:48.022Z,98252.19
2023-03-21T04:47:16.002Z,98252.19
2023-03-21T04:49:43.253Z,98254.94
2023-03-21T04:52:09.728Z,98256.72
2023-03-21T04:54:36.923Z,98247.38
2023-03-21T04:57:04.552Z,98251.25
2023-03-21T04:59:31.565Z,98250.56
2023-03-21T05:01:58.600Z,98246.69
2023-03-21T05:04:27.018Z,98250.72
2023-03-21T05:06:54.053Z,98248.28
2023-03-21T05:09:22.088Z,98250.56
2023-03-21T05:11:48.606Z,98249.38
2023-03-21T05:14:17.220Z,98245.69
2023-03-21T05:16:45.228Z,98237.56
2023-03-21T05:19:13.848Z,98229.78
2023-03-21T05:21:43.526Z,98232.22
2023-03-21T05:24:19.982Z,98238.56
2023-03-21T05:26:56.098Z,98234.63
2023-03-21T05:29:22.664Z,98236.53
2023-03-21T05:31:49.127Z,98233.28
2023-03-21T05:34:15.713Z,98235.88
2023-03-21T05:36:42.226Z,98234.75
2023-03-21T05:39:08.703Z,98231.16
2023-03-21T05:41:35.237Z,98226.44
2023-03-21T05:44:01.778Z,98219.00
2023-03-21T05:46:28.307Z,98226.38
2023-03-21T05:48:54.884Z,98221.59
2023-03-21T05:51:21.433Z,98228.75
2023-03-21T05:53:48.550Z,98232.63
2023-03-21T05:56:15.482Z,98223.88
2023-03-21T05:58:42.068Z,98235.22
2023-03-21T06:01:08.835Z,98234.22
2023-03-21T06:03:35.368Z,98230.19
2023-03-21T06:06:03.462Z,98222.97
2023-03-21T06:08:30.406Z,98230.31
2023-03-21T06:10:56.901Z,98222.47
2023-03-21T06:13:23.381Z,98224.09
2023-03-21T06:15:49.918Z,98220.84
2023-03-21T06:18:17.562Z,98216.69
2023-03-21T06:20:44.073Z,98204.84
2023-03-21T06:23:10.832Z,98213.94
2023-03-21T06:25:37.863Z,98211.13
2023-03-21T06:28:09.052Z,98205.47
2023-03-21T06:30:37.781Z,98209.84
2023-03-21T06:33:09.879Z,98202.84
2023-03-21T06:35:37.566Z,98203.97
2023-03-21T06:38:04.884Z,98206.06
2023-03-21T06:40:32.641Z,98197.50
2023-03-21T06:43:02.250Z,98192.28
2023-03-21T06:45:28.971Z,98201.47
2023-03-21T06:47:55.614Z,98198.59
2023-03-21T06:50:22.140Z,98201.63
2023-03-21T06:52:48.624Z,98198.03
2023-03-21T06:55:15.336Z,98200.63
2023-03-21T06:57:41.850Z,98195.63
2023-03-21T07:00:09.486Z,98188.63
2023-03-21T07:02:36.085Z,98182.75
2023-03-21T07:05:02.609Z,98180.34
2023-03-21T07:07:29.742Z,98184.38
2023-03-21T07:09:56.252Z,98178.53
2023-03-21T07:12:23.233Z,98182.38
2023-03-21T07:14:49.728Z,98177.66
2023-03-21T07:17:16.189Z,98176.28
2023-03-21T07:19:44.824Z,98177.56
2023-03-21T07:22:11.465Z,98172.66
2023-03-21T07:24:37.976Z,98173.47
2023-03-21T07:27:04.425Z,98166.47
2023-03-21T07:29:30.915Z,98176.13
2023-03-21T07:31:57.464Z,98172.38
2023-03-21T07:34:24.260Z,98163.88
2023-03-21T07:36:50.806Z,98164.47
2023-03-21T07:39:17.687Z,98158.25
2023-03-21T07:41:44.160Z,98156.53
2023-03-21T07:44:10.695Z,98147.25
2023-03-21T07:46:37.187Z,98143.09
2023-03-21T07:49:03.964Z,98145.69
2023-03-21T07:51:30.672Z,98133.94
2023-03-21T07:53:57.158Z,98128.41
2023-03-21T07:56:23.623Z,98126.22
2023-03-21T07:58:50.105Z,98126.09
2023-03-21T08:01:16.577Z,98130.41
2023-03-21T08:03:43.363Z,98128.53
2023-03-21T08:06:10.212Z,98128.66
2023-03-21T08:08:36.710Z,98126.22
2023-03-21T08:11:04.070Z,98117.38
2023-03-21T08:13:30.630Z,98117.59
2023-03-21T08:15:57.630Z,98111.38
2023-03-21T08:18:24.284Z,98119.06
2023-03-21T08:20:54.650Z,98109.63
2023-03-21T08:23:21.494Z,98110.97
2023-03-21T08:25:54.523Z,98107.50
2023-03-21T08:28:21.043Z,98110.81
2023-03-21T08:30:47.806Z,98110.13
2023-03-21T08:33:14.377Z,98110.13
2023-03-21T08:35:41.381Z,98108.56
2023-03-21T08:38:08.026Z,98110.53
2023-03-21T08:40:34.515Z,98108.91
2023-03-21T08:43:01.026Z,98112.38
2023-03-21T08:45:27.574Z,98109.44
2023-03-21T08:47:54.212Z,98114.47
2023-03-21T08:50:22.813Z,98114.66
2023-03-21T08:52:49.391Z,98116.25
2023-03-21T08:55:17.651Z,98105.50
2023-03-21T08:57:44.253Z,98106.66
2023-03-21T09:00:14.268Z,98110.41
2023-03-21T09:02:41.536Z,98113.25
2023-03-21T09:05:08.581Z,98110.00
2023-03-21T09:07:36.390Z,98122.53
2023-03-21T09:10:19.900Z,98107.50
2023-03-21T09:12:47.742Z,98098.53
2023-03-21T09:15:14.274Z,98109.53
2023-03-21T09:17:44.486Z,98099.56
2023-03-21T09:20:18.757Z,98106.41
2023-03-21T09:22:47.557Z,98102.38
2023-03-21T09:25:15.233Z,98118.31
2023-03-21T09:27:51.589Z,98108.72
2023-03-21T09:30:19.346Z,98115.19
2023-03-21T09:32:48.610Z,98124.75
2023-03-21T09:35:19.048Z,98122.09
2023-03-21T09:37:47.259Z,98121.00
2023-03-21T09:40:40.013Z,98117.09
2023-03-21T09:43:20.390Z,98113.47
2023-03-21T09:46:02.834Z,98119.94
2023-03-21T09:49:03.004Z,98116.50
2023-03-21T09:51:32.949Z,98114.88
2023-03-21T09:54:02.089Z,98117.44
2023-03-21T09:56:28.631Z,98123.28
2023-03-21T09:58:59.183Z,98124.91
2023-03-21T10:01:32.860Z,98121.75
2023-03-21T10:04:11.364Z,98121.75
2023-03-21T10:06:40.220Z,98124.19
2023-03-21T10:09:24.529Z,98124.09
2023-03-21T10:11:55.622Z,98123.94
2023-03-21T10:14:43.212Z,98121.97
2023-03-21T10:17:30.632Z,98125.84
2023-03-21T10:20:11.952Z,98121.56
2023-03-21T10:22:38.705Z,98126.84
2023-03-21T10:25:05.810Z,98114.66
2023-03-21T10:27:33.103Z,98119.50
2023-03-21T10:30:01.014Z,98120.66
2023-03-21T10:32:27.532Z,98115.16
2023-03-21T10:37:23.000Z,98108.53
2023-03-21T10:39:50.453Z,98116.63
2023-03-21T10:42:31.113Z,98116.13
2023-03-21T10:44:57.659Z,98115.25
2023-03-21T10:47:28.893Z,98105.75
2023-03-21T10:50:11.438Z,98112.56
2023-03-21T10:52:44.447Z,98113.03
2023-03-21T10:55:30.768Z,98097.69
2023-03-21T10:58:08.555Z,98084.69
2023-03-21T11:00:39.375Z,98089.22
2023-03-21T11:03:05.836Z,98101.34
2023-03-21T11:05:39.989Z,98087.56
2023-03-21T11:08:11.400Z,98096.59
2023-03-21T11:10:48.587Z,98101.19
2023-03-21T11:13:23.703Z,98094.03
2023-03-21T11:15:54.323Z,98087.72
2023-03-21T11:18:25.858Z,98086.25
2023-03-21T11:21:02.135Z,98086.25
2023-03-21T11:23:30.384Z,98086.59
2023-03-21T11:25:58.327Z,98080.41
2023-03-21T11:28:26.006Z,98087.13
2023-03-21T11:30:56.908Z,98086.06
2023-03-21T11:33:27.921Z,98080.84
2023-03-21T11:36:02.629Z,98087.50
2023-03-21T11:38:36.494Z,98086.75
2023-03-21T11:41:03.294Z,98091.81
2023-03-21T11:43:37.613Z,98095.53
2023-03-21T11:46:04.112Z,98094.47
2023-03-21T11:48:39.029Z,98090.31
2023-03-21T11:51:34.996Z,98086.19
2023-03-21T11:54:16.877Z,98087.81
2023-03-21T11:56:51.784Z,98073.97
2023-03-21T11:59:31.922Z,98084.47
2023-03-21T12:02:16.541Z,98081.91
2023-03-21T12:04:46.604Z,98078.31
2023-03-21T12:07:31.441Z,98076.59
2023-03-21T12:10:25.736Z,98079.19
2023-03-21T12:13:26.215Z,98066.84
2023-03-21T12:16:08.804Z,98072.94
2023-03-21T12:18:40.672Z,98071.78
2023-03-21T12:21:26.906Z,98070.31
2023-03-21T12:24:12.762Z,98062.19
2023-03-21T12:26:48.638Z,98064.34
2023-03-21T12:29:30.393Z,98053.97
2023-03-21T12:32:35.466Z,98058.09
2023-03-21T12:35:36.571Z,98047.53
2023-03-21T12:38:18.059Z,98049.59
2023-03-21T12:40:51.700Z,98046.81
2023-03-21T12:43:27.097Z,98046.94
2023-03-21T12:45:56.192Z,98054.06
2023-03-21T12:48:39.203Z,98039.72
2023-03-21T12:51:08.610Z,98045.28
2023-03-21T12:53:53.421Z,98050.28
2023-03-21T12:56:35.739Z,98049.03
2023-03-21T12:59:20.453Z,98039.22
2023-03-21T13:01:47.163Z,98050.50
2023-03-21T13:04:31.878Z,98034.00
2023-03-21T13:07:00.078Z,98030.53
2023-03-21T13:09:37.561Z,98026.94
2023-03-21T13:12:22.495Z,98031.50
2023-03-21T13:14:56.866Z,98024.53
2023-03-21T13:17:27.498Z,98022.13
2023-03-21T13:20:01.909Z,98017.56
2023-03-21T13:22:29.274Z,98016.13
2023-03-21T13:25:17.985Z,98011.91
2023-03-21T13:27:47.380Z,98005.78
2023-03-21T13:30:32.453Z,98008.81
2023-03-21T13:33:13.109Z,98002.19
2023-03-21T13:35:42.457Z,98001.19
2023-03-21T13:38:21.136Z,97993.13
2023-03-21T13:40:52.143Z,97998.16
2023-03-21T13:43:54.119Z,98002.34
2023-03-21T13:46:26.625Z,97991.97
2023-03-21T13:48:58.912Z,97999.06
2023-03-21T13:51:29.056Z,98001.09
2023-03-21T13:54:08.033Z,97991.72
2023-03-21T13:56:46.665Z,98008.19
2023-03-21T13:59:14.161Z,98007.56
2023-03-21T14:01:41.715Z,98001.84
2023-03-21T14:04:18.872Z,97999.22
2023-03-21T14:06:59.209Z,97992.97
2023-03-21T14:09:27.713Z,97989.31
2023-03-21T14:11:56.620Z,97976.03
2023-03-21T14:14:29.497Z,97981.16
2023-03-21T14:16:56.087Z,97983.94
2023-03-21T14:19:29.194Z,97981.34
2023-03-21T14:21:56.686Z,97970.53
2023-03-21T14:24:23.169Z,97967.09
2023-03-21T14:26:51.021Z,97968.56
2023-03-21T14:29:31.764Z,97952.53
2023-03-21T14:32:00.085Z,97960.13
2023-03-21T14:34:27.547Z,97958.88
2023-03-21T14:36:58.834Z,97960.50
2023-03-21T14:39:32.866Z,97972.94
2023-03-21T14:42:07.283Z,97961.66
2023-03-21T14:44:54.881Z,97958.44
2023-03-21T14:47:28.713Z,97948.34
2023-03-21T14:49:56.340Z,97947.81
2023-03-21T14:52:24.459Z,97951.19
2023-03-21T14:54:50.935Z,97953.50
2023-03-21T14:57:22.310Z,97951.28
2023-03-21T14:59:52.968Z,97941.38
2023-03-21T15:02:22.835Z,97943.44
2023-03-21T15:04:51.130Z,97950.50
2023-03-21T15:07:32.325Z,97947.91
2023-03-21T15:10:03.126Z,97939.41
2023-03-21T15:12:32.929Z,97940.00
2023-03-21T15:14:59.840Z,97935.28
2023-03-21T15:17:26.331Z,97926.09
2023-03-21T15:19:52.803Z,97926.88
2023-03-21T15:22:27.817Z,97933.31
2023-03-21T15:24:56.760Z,97916.75
2023-03-21T15:27:24.503Z,97919.72
2023-03-21T15:29:53.996Z,97915.25
2023-03-21T15:32:22.820Z,97903.63
2023-03-21T15:34:49.964Z,97902.66
2023-03-21T15:37:18.819Z,97894.78
2023-03-21T15:39:45.669Z,97889.13
2023-03-21T15:42:27.812Z,97891.47
2023-03-21T15:44:56.498Z,97879.56
2023-03-21T15:47:58.923Z,97873.94
2023-03-21T15:50:27.976Z,97862.25
2023-03-21T15:52:54.534Z,97862.50
2023-03-21T15:55:27.943Z,97882.16
2023-03-21T15:58:04.672Z,97877.44
2023-03-21T16:00:36.034Z,97889.78
2023-03-21T16:03:06.478Z,97884.59
2023-03-21T16:05:33.336Z,97872.69
2023-03-21T16:08:19.579Z,97864.47
2023-03-21T16:10:46.100Z,97855.25
2023-03-21T16:13:13.811Z,97851.44
2023-03-21T16:15:40.339Z,97845.63
2023-03-21T16:18:07.201Z,97877.97
2023-03-21T16:20:42.625Z,97876.38
2023-03-21T16:23:13.241Z,97882.72
2023-03-21T16:25:40.209Z,97888.63
2023-03-21T16:28:14.221Z,97892.38
2023-03-21T16:30:40.939Z,97886.09
2023-03-21T16:33:10.764Z,97898.09
2023-03-21T16:35:37.287Z,97892.63
2023-03-21T16:38:05.189Z,97888.50
2023-03-21T16:40:35.299Z,97890.47
2023-03-21T16:43:02.657Z,97884.84
2023-03-21T16:45:30.414Z,97883.25
2023-03-21T16:47:57.144Z,97875.31
2023-03-21T16:50:24.390Z,97881.66
2023-03-21T16:52:50.944Z,97879.59
2023-03-21T16:55:17.454Z,97882.47
2023-03-21T16:57:44.147Z,97879.59
2023-03-21T17:00:13.233Z,97880.84
2023-03-21T17:02:39.761Z,97881.81
2023-03-21T17:05:07.488Z,97887.00
2023-03-21T17:07:33.967Z,97887.25
2023-03-21T17:10:00.623Z,97892.19
2023-03-21T17:12:27.109Z,97886.03
2023-03-21T17:14:53.587Z,97879.94
2023-03-21T17:17:20.424Z,97876.72
2023-03-21T17:19:47.402Z,97884.59
2023-03-21T17:22:14.662Z,97876.19
2023-03-21T17:24:41.272Z,97885.22
2023-03-21T17:27:07.848Z,97888.81
2023-03-21T17:29:34.350Z,97895.75
2023-03-21T17:32:01.017Z,97901.84
2023-03-21T17:34:27.496Z,97892.91
2023-03-21T17:36:53.952Z,97905.59
2023-03-21T17:39:22.664Z,97902.09
2023-03-21T17:41:49.863Z,97896.28
2023-03-21T17:44:16.414Z,97899.84
2023-03-21T17:46:42.959Z,97902.91
2023-03-21T17:49:13.578Z,97914.50
2023-03-21T17:51:40.333Z,97909.66
2023-03-21T17:54:06.801Z,97909.03
2023-03-21T17:56:34.066Z,97908.84
2023-03-21T17:59:02.900Z,97917.69
2023-03-21T18:01:30.680Z,97902.50
2023-03-21T18:03:57.807Z,97912.59
2023-03-21T18:06:25.477Z,97923.19
2023-03-21T18:08:53.002Z,97921.13
2023-03-21T18:11:20.801Z,97921.47
2023-03-21T18:13:48.028Z,97912.72
2023-03-21T18:16:19.602Z,97918.97
2023-03-21T18:18:46.656Z,97917.97
2023-03-21T18:21:14.047Z,97920.28
2023-03-21T18:23:40.579Z,97921.78
2023-03-21T18:26:07.891Z,97922.94
2023-03-21T18:28:41.386Z,97923.63
2023-03-21T18:31:14.339Z,97925.00
2023-03-21T18:33:44.449Z,97924.56
2023-03-21T18:36:14.039Z,97916.50
2023-03-21T18:38:41.058Z,97921.44
2023-03-21T18:41:10.282Z,97917.22
2023-03-21T18:46:23.766Z,97907.31
2023-03-21T18:48:51.779Z,97911.13
2023-03-21T18:51:19.255Z,97904.88
2023-03-21T18:53:45.997Z,97909.16
2023-03-21T18:56:46.590Z,97904.06
2023-03-21T18:58:59.281Z,97902.47
2023-03-21T19:01:26.158Z,97900.59
2023-03-21T19:04:17.840Z,97911.81
2023-03-21T19:06:47.131Z,97900.97
2023-03-21T19:09:14.356Z,97900.41
2023-03-21T19:11:43.803Z,97905.69
2023-03-21T19:14:11.566Z,97896.22
2023-03-21T19:17:07.106Z,97902.91
2023-03-21T19:19:25.288Z,97911.56
2023-03-21T19:21:52.183Z,97890.25
2023-03-21T19:24:28.630Z,97899.69
2023-03-21T19:26:55.608Z,97887.81
2023-03-21T19:29:22.206Z,97893.81
2023-03-21T19:31:51.016Z,97879.09
2023-03-21T19:34:17.771Z,97884.88
2023-03-21T19:36:46.033Z,97884.44
2023-03-21T19:39:21.801Z,97879.16
2023-03-21T19:41:48.375Z,97884.84
2023-03-21T19:44:14.850Z,97873.78
2023-03-21T19:46:41.309Z,97886.09
2023-03-21T19:49:08.337Z,97877.44
2023-03-21T19:51:35.661Z,97866.03
2023-03-21T19:54:04.402Z,97873.88
2023-03-21T19:56:31.677Z,97864.63
2023-03-21T19:58:58.328Z,97870.53
2023-03-21T20:01:25.050Z,97856.94
2023-03-21T20:03:52.221Z,97853.03
2023-03-21T20:06:18.842Z,97848.81
2023-03-21T20:11:32.377Z,97836.75
2023-03-21T20:13:59.871Z,97837.44
2023-03-21T20:16:33.674Z,97841.88
2023-03-21T20:19:00.942Z,97857.13
2023-03-21T20:21:34.869Z,97854.34
2023-03-21T20:24:06.928Z,97862.19
2023-03-21T20:26:34.131Z,97857.13
2023-03-21T20:29:37.314Z,97852.03
2023-03-21T20:31:47.471Z,97854.06
2023-03-21T20:34:14.027Z,97840.69
2023-03-21T20:36:43.367Z,97836.53
2023-03-21T20:39:10.141Z,97841.88
2023-03-21T20:41:36.775Z,97842.69
2023-03-21T20:46:50.040Z,97837.88
2023-03-21T20:49:16.681Z,97829.91
2023-03-21T20:54:29.823Z,97821.84
2023-03-21T20:56:57.326Z,97832.91
2023-03-21T20:59:27.747Z,97828.53
2023-03-21T21:01:55.717Z,97833.84
2023-03-21T21:04:23.125Z,97833.63
2023-03-21T21:06:53.848Z,97825.78
2023-03-21T21:09:20.848Z,97821.88
2023-03-21T21:14:35.789Z,97816.13
2023-03-21T21:17:15.486Z,97818.88
2023-03-21T21:19:52.351Z,97817.97
2023-03-21T21:22:18.828Z,97824.63
2023-03-21T21:24:45.307Z,97821.13
2023-03-21T21:27:11.977Z,97822.47
2023-03-21T21:29:38.573Z,97821.13
2023-03-21T21:32:05.271Z,97823.03
2023-03-21T21:34:31.895Z,97818.09
2023-03-21T21:36:58.478Z,97822.00
2023-03-21T21:39:26.689Z,97821.69
2023-03-21T21:41:53.692Z,97814.78
2023-03-21T21:44:20.328Z,97821.34
2023-03-21T21:46:47.099Z,97820.19
2023-03-21T21:49:13.658Z,97817.16
2023-03-21T21:51:41.805Z,97812.38
2023-03-21T21:54:08.394Z,97806.03
2023-03-21T21:56:36.907Z,97807.06
2023-03-21T21:59:04.323Z,97814.78
2023-03-21T22:01:31.716Z,97819.16
2023-03-21T22:04:06.019Z,97805.59
2023-03-21T22:06:36.045Z,97811.59
2023-03-21T22:09:03.919Z,97809.88
2023-03-21T22:11:30.449Z,97813.47
2023-03-21T22:13:57.082Z,97814.41
2023-03-21T22:16:23.862Z,97812.09
2023-03-21T22:18:50.358Z,97810.63
2023-03-21T22:21:16.884Z,97815.22
2023-03-21T22:23:43.356Z,97815.53
2023-03-21T22:26:10.077Z,97816.09
2023-03-21T22:28:40.101Z,97819.44
2023-03-21T22:31:11.783Z,97811.84
2023-03-21T22:33:38.239Z,97814.38
2023-03-21T22:36:04.851Z,97817.28
2023-03-21T22:38:31.310Z,97801.63
2023-03-21T22:40:58.765Z,97809.56
2023-03-21T22:43:25.404Z,97803.13
2023-03-21T22:45:52.185Z,97799.88
2023-03-21T22:48:19.489Z,97804.44
2023-03-21T22:50:46.015Z,97795.03
2023-03-21T22:53:12.466Z,97803.06
2023-03-21T22:55:39.141Z,97812.19
2023-03-21T22:58:05.864Z,97811.41
2023-03-21T23:00:32.598Z,97810.81
2023-03-21T23:02:59.840Z,97812.47
2023-03-21T23:05:26.683Z,97809.13
2023-03-21T23:07:53.164Z,97798.75
2023-03-21T23:14:08.253Z,97796.69
2023-03-21T23:16:37.980Z,97798.16
2023-03-21T23:19:04.600Z,97804.16
2023-03-21T23:21:32.012Z,97798.16
2023-03-21T23:23:58.441Z,97792.66
2023-03-21T23:26:24.877Z,97802.88
2023-03-21T23:28:51.365Z,97800.34
2023-03-21T23:31:19.334Z,97799.78
2023-03-21T23:33:46.208Z,97800.47
2023-03-21T23:36:13.040Z,97791.63
2023-03-21T23:38:39.493Z,97796.69
2023-03-21T23:41:09.957Z,97788.75
2023-03-21T23:43:36.886Z,97794.84
2023-03-21T23:46:03.745Z,97796.31
2023-03-21T23:48:30.228Z,97786.53
2023-03-21T23:50:56.918Z,97783.88
2023-03-21T23:53:23.376Z,97782.03
2023-03-21T23:55:52.653Z,97782.78
2023-03-21T23:58:19.884Z,97784.81
